• Join FlightAware (Why Join?)
  • Login
  • US Flag 
06:03AM EDT


 

Airport Tracker/Info


-or-


 

Live Flight TrackerFlight Track Log ✈ SWA1464 ✈ 21-Jun-2013 ✈ KCLT - KHOU

Flight Track Log - Related Links

Times and Time Zones

All times are in EDT time to prevent confusion due to time zone crossing. See the SWA1464 flight status page for this flight to view local times or setup timezone preferences in your user account.

Time Position Orientation Groundspeed Altitude Reporting Facility
EDT Latitude Longitude Course Direction KTS MPH feet Rate Location/Type
10:19AM 35.2894 -81.0389 311° West 267 307 4,800  Level Atlanta Center
10:20AM 35.2769 -81.1308 261° West 303 349 7,900 2,220 Climbing Atlanta Center
10:21AM 35.2375 -81.2264 243° Southwest 302 348 9,400 2,160 Climbing Atlanta Center
10:22AM 35.1669 -81.3356 232° Southwest 340 391 12,900 3,000 Climbing Atlanta Center
10:23AM 35.1022 -81.4342 231° Southwest 364 419 16,200 3,060 Climbing Atlanta Center
10:24AM 35.0375 -81.5350 232° Southwest 377 434 19,100 2,820 Climbing Atlanta Center
10:25AM 34.9794 -81.6483 238° Southwest 390 449 21,900 1,920 Climbing Atlanta Center
10:26AM 34.9419 -81.7633 248° West 397 457 23,000 900 Climbing Atlanta Center
10:27AM 34.8900 -81.8889 243° Southwest 410 472 23,800 1,500 Climbing Atlanta Center
10:28AM 34.8169 -82.0097 234° Southwest 416 479 26,000 2,160 Climbing Atlanta Center
10:29AM 34.7500 -82.1300 236° Southwest 423 487 28,200 2,040 Climbing Atlanta Center
10:30AM 34.6808 -82.2528 236° Southwest 435 501 30,100 1,860 Climbing Atlanta Center
10:31AM 34.6094 -82.3706 234° Southwest 435 501 32,000 900 Climbing Atlanta Center
10:32AM 34.5400 -82.4956 236° Southwest 440 506 32,000 840 Level Atlanta Center
10:33AM 34.4725 -82.6025 233° Southwest 445 512 33,700 960 Climbing Atlanta Center
10:34AM 34.4069 -82.7219 236° Southwest 445 512 34,000 120 Climbing Atlanta Center
10:35AM 34.3414 -82.8414 236° Southwest 439 505 34,000 360 Level Atlanta Center
10:36AM 34.2653 -82.9581 232° Southwest 439 505 34,800 1,140 Climbing Atlanta Center
10:37AM 34.2017 -83.0769 237° Southwest 434 499 36,300 1,440 Climbing Atlanta Center
10:38AM 34.1253 -83.2058 234° Southwest 434 499 37,700 1,200 Climbing Atlanta Center
10:39AM 34.0553 -83.3267 235° Southwest 434 499 38,700 1,020 Climbing Atlanta Center
10:40AM 33.9869 -83.4425 235° Southwest 434 499 39,800 600 Climbing Atlanta Center
10:41AM 33.9144 -83.5608 234° Southwest 434 499 40,000 60 Climbing Atlanta Center
10:42AM 33.8481 -83.6836 237° Southwest 434 499 40,000  Level Atlanta Center
10:43AM 33.8044 -83.8164 248° West 434 499 40,000  Level Atlanta Center
10:44AM 33.7672 -83.9564 252° West 434 499 40,000  Level Atlanta Center
10:45AM 33.7253 -84.0936 250° West 441 507 40,000  Level Atlanta Center
10:46AM 33.6878 -84.2336 252° West 446 513 40,000  Level Atlanta Center
10:47AM 33.6456 -84.3731 250° West 446 513 40,000  Level Atlanta Center
10:48AM 33.6181 -84.5103 257° West 436 502 40,000  Level Atlanta Center
10:49AM 33.5944 -84.6597 259° West 443 510 40,000  Level Atlanta Center
10:50AM 33.5728 -84.8017 260° West 443 510 40,000  Level Atlanta Center
10:51AM 33.5531 -84.9411 260° West 443 510 40,000  Level Atlanta Center
10:52AM 33.5331 -85.0831 260° West 443 510 40,000  Level Atlanta Center
10:53AM 33.5108 -85.2247 259° West 436 502 40,000  Level Atlanta Center
10:54AM 33.4886 -85.3639 259° West 430 495 40,000  Level Atlanta Center
10:55AM 33.4661 -85.5056 259° West 430 495 40,000  Level Atlanta Center
10:56AM 33.4478 -85.6372 261° West 435 501 40,000  Level Atlanta Center
10:57AM 33.4272 -85.7811 260° West 440 506 40,000  Level Atlanta Center
10:58AM 33.4022 -85.9200 258° West 440 506 40,000  Level Atlanta Center
10:59AM 33.3789 -86.0661 259° West 446 513 40,000  Level Atlanta Center
11:00AM 33.3514 -86.2122 257° West 431 496 40,000  Level Atlanta Center
11:01AM 33.3281 -86.3508 259° West 431 496 40,000  Level Atlanta Center
11:02AM 33.3064 -86.4919 260° West 431 496 40,000  Level Atlanta Center
11:03AM 33.2828 -86.6281 258° West 431 496 40,000  Level Atlanta Center
11:04AM 33.2611 -86.7664 259° West 431 496 40,000  Level Atlanta Center
11:05AM 33.2369 -86.9072 258° West 431 496 40,000  Level Atlanta Center
11:06AM 33.2006 -87.0378 252° West 431 496 40,000  Level Atlanta Center
11:07AM 33.1556 -87.1703 248° West 424 488 40,000  Level Atlanta Center
11:08AM 33.1122 -87.3025 249° West 424 488 40,000  Level Atlanta Center
11:10AM 33.0167 -87.5875 248° West 428 493 40,000  Level Memphis Center
11:11AM 32.9739 -87.7225 249° West 428 493 40,000  Level Memphis Center
11:12AM 32.9264 -87.8525 247° West 428 493 40,000  Level Memphis Center
11:13AM 32.8953 -87.9747 253° West 433 498 40,000  Level Memphis Center
11:14AM 32.8478 -88.1044 246° West 433 498 40,000  Level Memphis Center
11:15AM 32.8042 -88.2342 248° West 433 498 40,000  Level Memphis Center
11:16AM 32.7603 -88.3661 248° West 433 498 40,000  Level Memphis Center
11:17AM 32.7164 -88.4956 248° West 433 498 40,000  Level Memphis Center
11:18AM 32.6683 -88.6322 247° West 438 504 40,000  Level Memphis Center
11:19AM 32.6219 -88.7639 247° West 438 504 40,000  Level Memphis Center
11:20AM 32.5756 -88.8978 248° West 438 504 40,000  Level Memphis Center
11:21AM 32.5269 -89.0342 247° West 443 510 40,000  Level Memphis Center
11:22AM 32.4803 -89.1678 248° West 443 510 40,000  Level Memphis Center
11:23AM 32.4314 -89.3039 247° West 443 510 40,000  Level Memphis Center
11:24AM 32.3844 -89.4397 248° West 443 510 40,000  Level Memphis Center
11:25AM 32.3353 -89.5756 247° West 443 510 40,000  Level Memphis Center
11:26AM 32.2881 -89.7111 248° West 443 510 40,000  Level Memphis Center
11:27AM 32.2408 -89.8464 248° West 443 510 40,000  Level Memphis Center
11:28AM 32.1933 -89.9842 248° West 448 516 40,000  Level Memphis Center
11:29AM 32.1414 -90.1194 246° West 453 521 40,000  Level Memphis Center
11:30AM 32.0936 -90.2544 247° West 453 521 40,000  Level Memphis Center
11:31AM 32.0339 -90.4214 247° West 449 517 40,000  Level Houston Center
11:32AM 31.9864 -90.5544 247° West 442 509 40,000  Level Houston Center
11:33AM 31.9283 -90.7122 247° West 445 512 40,000  Level Houston Center
11:34AM 31.8794 -90.8478 247° West 444 511 40,000  Level Houston Center
11:35AM 31.8303 -90.9800 246° West 442 509 40,000  Level Houston Center
11:36AM 31.7822 -91.1103 247° West 438 504 40,000  Level Houston Center
11:38AM 31.7331 -91.2414 246° West 436 502 40,000  Level Houston Center
11:39AM 31.6761 -91.3983 247° West 436 502 40,000  Level Houston Center
11:40AM 31.6261 -91.5294 246° West 437 503 40,000  Level Houston Center
11:41AM 31.5778 -91.6608 247° West 438 504 40,000  Level Houston Center
11:42AM 31.5272 -91.7925 246° West 442 509 40,000  Level Houston Center
11:43AM 31.4781 -91.9233 246° West 440 506 40,000  Level Houston Center
11:44AM 31.4244 -92.0603 245° Southwest 438 504 40,000  Level Houston Center
11:45AM 31.3739 -92.1908 246° West 439 505 40,000  Level Houston Center
11:46AM 31.3242 -92.3208 246° West 442 509 40,000  Level Houston Center
11:47AM 31.2644 -92.4819 247° West 450 518 40,000  Level Houston Center
11:48AM 31.2164 -92.6114 247° West 445 512 40,000  Level Houston Center
11:49AM 31.1683 -92.7403 246° West 438 504 40,000  Level Houston Center
11:50AM 31.1194 -92.8728 247° West 436 502 40,000  Level Houston Center
11:51AM 31.0706 -93.0000 246° West 440 506 40,000  Level Houston Center
11:52AM 31.0128 -93.1594 247° West 446 513 40,000  Level Houston Center
11:53AM 30.9622 -93.2919 246° West 450 518 40,000  Level Houston Center
11:54AM 30.9142 -93.4256 247° West 451 519 40,000 -420 Level Houston Center
11:55AM 30.8639 -93.5586 246° West 453 521 39,200 -1,320 Descending Houston Center
11:56AM 30.8136 -93.6889 246° West 447 514 37,300 -2,760 Descending Houston Center
11:57AM 30.7539 -93.8478 246° West 452 520 33,500 -3,600 Descending Houston Center
11:58AM 30.7025 -93.9806 246° West 455 524 29,900 -3,000 Descending Houston Center
11:59AM 30.6517 -94.1142 246° West 455 524 27,300 -2,700 Descending Houston Center
12:00PM 30.6028 -94.2425 246° West 440 506 24,400 -2,640 Descending Houston Center
12:01PM 30.5531 -94.3686 245° Southwest 432 497 21,900 -2,580 Descending Houston Center
12:02PM 30.4994 -94.5069 246° West 414 476 19,100 -2,520 Descending Houston Center
12:03PM 30.4328 -94.6144 234° Southwest 395 455 16,700 -1,980 Descending Houston Center
12:04PM 30.3700 -94.7125 233° Southwest 382 440 15,100 -1,800 Descending Houston Center
12:05PM 30.3108 -94.8039 233° Southwest 361 415 13,100 -1,200 Descending Houston Center
12:07PM 30.2544 -94.8917 233° Southwest 343 395 12,700 -900 Descending Houston Center
12:08PM 30.1925 -94.9867 233° Southwest 310 357 11,300 -1,320 Descending Houston Center
12:09PM 30.1419 -95.0617 232° Southwest 299 344 10,000 -660 Descending Houston Center
12:10PM 30.0697 -95.1006 205° Southwest 291 335 10,000 -600 Level Houston Center
12:11PM 29.9764 -95.1392 200° South 269 310 8,800 -840 Descending Houston Center
12:12PM 29.9269 -95.1603 200° South 270 311 8,300 -720 Descending Houston Center
12:13PM 29.8536 -95.1922 201° Southwest 241 277 7,500 -840 Descending Houston Center
12:14PM 29.7922 -95.2189 201° Southwest 237 273 6,600 -720 Descending Houston Center
12:15PM 29.7328 -95.2442 200° South 233 268 6,000 -300 Descending Houston Center
12:16PM 29.6614 -95.2764 201° Southwest 229 264 6,000  Level Houston Center
12:17PM 29.6417 -95.3269 246° West 231 266 6,000  Level Houston Center
12:18PM 29.6231 -95.4067 255° West 249 287 6,000 -300 Level Houston Center
12:19PM 29.6625 -95.4689 306° West 241 277 5,400 -1,080 Descending Houston Center
12:20PM 29.7244 -95.4828 349° North 240 276 3,900 -1,620 Descending Houston Center
12:21PM 29.7564 -95.4189 60° Northeast 223 257 2,200 -900 Descending Houston Center
12:22PM 29.7208 -95.3725 131° Southeast 169 194 2,000 -420 Descending Houston Center
12:23PM 29.6975 -95.3403 130° Southeast 178 205 1,400 -720 Descending Houston Center
12:24PM 29.6661 -95.3047 135° Southeast 135 155 600 -660 Descending Houston Center
12:25PM 29.6425 -95.2764 134° Southeast 144 166 100 -480 Descending Houston Center